sensor_id;sensor_type;location;lat;lon;timestamp;pressure;altitude;pressure_sealevel;temperature;humidity
42385;BME280;28042;43.986;22.860;2023-02-03T00:00:05;101677.34;;;3.76;85.11
42385;BME280;28042;43.986;22.860;2023-02-03T00:02:30;101670.56;;;3.81;83.77
42385;BME280;28042;43.986;22.860;2023-02-03T00:04:56;101667.53;;;3.75;85.16
42385;BME280;28042;43.986;22.860;2023-02-03T00:07:21;101673.44;;;3.68;85.95
42385;BME280;28042;43.986;22.860;2023-02-03T00:09:46;101678.25;;;3.65;86.15
42385;BME280;28042;43.986;22.860;2023-02-03T00:12:12;101673.75;;;3.54;86.67
42385;BME280;28042;43.986;22.860;2023-02-03T00:14:37;101686.63;;;3.51;86.85
42385;BME280;28042;43.986;22.860;2023-02-03T00:17:03;101705.13;;;3.55;86.39
42385;BME280;28042;43.986;22.860;2023-02-03T00:19:29;101702.69;;;3.52;86.07
42385;BME280;28042;43.986;22.860;2023-02-03T00:21:54;101696.00;;;3.35;87.15
42385;BME280;28042;43.986;22.860;2023-02-03T00:24:20;101716.03;;;3.22;87.99
42385;BME280;28042;43.986;22.860;2023-02-03T00:26:48;101710.75;;;3.09;88.88
42385;BME280;28042;43.986;22.860;2023-02-03T00:29:13;101718.00;;;2.97;89.88
42385;BME280;28042;43.986;22.860;2023-02-03T00:31:39;101719.72;;;2.87;90.98
42385;BME280;28042;43.986;22.860;2023-02-03T00:34:04;101721.06;;;2.81;91.13
42385;BME280;28042;43.986;22.860;2023-02-03T00:36:30;101724.13;;;2.77;91.45
42385;BME280;28042;43.986;22.860;2023-02-03T00:38:55;101713.09;;;2.69;91.79
42385;BME280;28042;43.986;22.860;2023-02-03T00:41:21;101702.31;;;2.69;92.69
42385;BME280;28042;43.986;22.860;2023-02-03T00:43:47;101703.81;;;2.62;93.28
42385;BME280;28042;43.986;22.860;2023-02-03T00:46:13;101683.47;;;2.80;92.33
42385;BME280;28042;43.986;22.860;2023-02-03T00:48:38;101702.56;;;2.77;93.05
42385;BME280;28042;43.986;22.860;2023-02-03T00:51:04;101710.66;;;2.77;92.42
42385;BME280;28042;43.986;22.860;2023-02-03T00:53:29;101720.56;;;2.76;92.57
42385;BME280;28042;43.986;22.860;2023-02-03T00:55:54;101707.72;;;2.80;92.56
42385;BME280;28042;43.986;22.860;2023-02-03T00:58:20;101705.88;;;2.80;92.62
42385;BME280;28042;43.986;22.860;2023-02-03T01:00:45;101702.56;;;2.77;92.26
42385;BME280;28042;43.986;22.860;2023-02-03T01:03:10;101702.09;;;2.72;93.12
42385;BME280;28042;43.986;22.860;2023-02-03T01:05:35;101706.25;;;2.65;93.04
42385;BME280;28042;43.986;22.860;2023-02-03T01:08:01;101713.72;;;2.61;94.32
42385;BME280;28042;43.986;22.860;2023-02-03T01:10:27;101719.47;;;2.57;94.76
42385;BME280;28042;43.986;22.860;2023-02-03T01:12:52;101717.50;;;2.47;95.59
42385;BME280;28042;43.986;22.860;2023-02-03T01:15:17;101721.63;;;2.40;96.24
42385;BME280;28042;43.986;22.860;2023-02-03T01:17:43;101718.69;;;2.32;98.12
42385;BME280;28042;43.986;22.860;2023-02-03T01:20:08;101717.34;;;2.26;99.08
42385;BME280;28042;43.986;22.860;2023-02-03T01:22:36;101731.06;;;2.35;98.59
42385;BME280;28042;43.986;22.860;2023-02-03T01:25:01;101732.19;;;2.43;98.09
42385;BME280;28042;43.986;22.860;2023-02-03T01:27:27;101744.66;;;2.44;97.95
42385;BME280;28042;43.986;22.860;2023-02-03T01:29:52;101735.13;;;2.51;98.15
42385;BME280;28042;43.986;22.860;2023-02-03T01:32:17;101737.34;;;2.58;97.52
42385;BME280;28042;43.986;22.860;2023-02-03T01:34:42;101744.56;;;2.57;98.07
42385;BME280;28042;43.986;22.860;2023-02-03T01:37:08;101735.28;;;2.61;98.22
42385;BME280;28042;43.986;22.860;2023-02-03T01:39:33;101728.28;;;2.59;97.87
42385;BME280;28042;43.986;22.860;2023-02-03T01:41:58;101735.13;;;2.51;98.89
42385;BME280;28042;43.986;22.860;2023-02-03T01:50:08;101711.63;;;2.65;98.03
42385;BME280;28042;43.986;22.860;2023-02-03T01:52:36;101713.59;;;2.74;96.65
42385;BME280;28042;43.986;22.860;2023-02-03T01:55:04;101713.13;;;2.80;95.85
42385;BME280;28042;43.986;22.860;2023-02-03T01:57:32;101711.16;;;2.82;96.03
42385;BME280;28042;43.986;22.860;2023-02-03T01:59:59;101718.75;;;2.88;95.85
42385;BME280;28042;43.986;22.860;2023-02-03T02:02:26;101725.47;;;2.94;95.50
42385;BME280;28042;43.986;22.860;2023-02-03T02:04:53;101736.34;;;3.03;94.89
42385;BME280;28042;43.986;22.860;2023-02-03T02:07:19;101728.63;;;3.10;94.16
42385;BME280;28042;43.986;22.860;2023-02-03T02:09:45;101728.91;;;3.07;94.16
42385;BME280;28042;43.986;22.860;2023-02-03T02:12:11;101742.72;;;3.02;94.71
42385;BME280;28042;43.986;22.860;2023-02-03T02:14:36;101741.25;;;3.09;94.37
42385;BME280;28042;43.986;22.860;2023-02-03T02:17:05;101754.84;;;3.19;93.24
42385;BME280;28042;43.986;22.860;2023-02-03T02:22:21;101761.34;;;3.39;91.69
42385;BME280;28042;43.986;22.860;2023-02-03T02:35:00;101761.09;;;3.31;93.30
42385;BME280;28042;43.986;22.860;2023-02-03T02:37:38;101763.06;;;3.40;93.10
42385;BME280;28042;43.986;22.860;2023-02-03T02:40:20;101769.41;;;3.50;92.73
42385;BME280;28042;43.986;22.860;2023-02-03T02:45:37;101783.66;;;3.41;93.21
42385;BME280;28042;43.986;22.860;2023-02-03T02:48:07;101783.13;;;3.47;93.20
42385;BME280;28042;43.986;22.860;2023-02-03T02:50:37;101791.22;;;3.58;92.39
42385;BME280;28042;43.986;22.860;2023-02-03T02:53:04;101787.03;;;3.54;93.30
42385;BME280;28042;43.986;22.860;2023-02-03T02:55:31;101782.50;;;3.55;92.55
42385;BME280;28042;43.986;22.860;2023-02-03T02:57:59;101791.22;;;3.58;92.80
42385;BME280;28042;43.986;22.860;2023-02-03T03:00:28;101798.44;;;3.58;93.35
42385;BME280;28042;43.986;22.860;2023-02-03T03:02:54;101799.31;;;3.58;93.79
42385;BME280;28042;43.986;22.860;2023-02-03T03:05:21;101810.31;;;3.55;93.41
42385;BME280;28042;43.986;22.860;2023-02-03T03:07:49;101805.47;;;3.49;93.70
42385;BME280;28042;43.986;22.860;2023-02-03T03:10:19;101799.19;;;3.49;94.14
42385;BME280;28042;43.986;22.860;2023-02-03T03:12:47;101806.94;;;3.42;94.47
42385;BME280;28042;43.986;22.860;2023-02-03T03:15:21;101806.44;;;3.48;93.56
42385;BME280;28042;43.986;22.860;2023-02-03T03:17:50;101805.94;;;3.43;93.15
42385;BME280;28042;43.986;22.860;2023-02-03T03:20:20;101835.34;;;3.46;93.50
42385;BME280;28042;43.986;22.860;2023-02-03T03:22:49;101835.88;;;3.40;93.97
42385;BME280;28042;43.986;22.860;2023-02-03T03:25:17;101835.88;;;3.40;93.58
42385;BME280;28042;43.986;22.860;2023-02-03T03:27:57;101841.25;;;3.40;94.22
42385;BME280;28042;43.986;22.860;2023-02-03T03:30:24;101865.78;;;3.48;92.99
42385;BME280;28042;43.986;22.860;2023-02-03T03:32:50;101863.56;;;3.53;92.55
42385;BME280;28042;43.986;22.860;2023-02-03T03:35:16;101862.81;;;3.51;93.49
42385;BME280;28042;43.986;22.860;2023-02-03T03:37:43;101856.19;;;3.55;93.56
42385;BME280;28042;43.986;22.860;2023-02-03T03:40:11;101864.28;;;3.66;93.08
42385;BME280;28042;43.986;22.860;2023-02-03T03:42:44;101863.03;;;3.71;92.45
42385;BME280;28042;43.986;22.860;2023-02-03T03:45:21;101852.03;;;3.74;92.40
42385;BME280;28042;43.986;22.860;2023-02-03T03:47:49;101872.63;;;3.75;92.78
42385;BME280;28042;43.986;22.860;2023-02-03T03:50:21;101870.91;;;3.74;93.19
42385;BME280;28042;43.986;22.860;2023-02-03T03:52:47;101862.06;;;3.72;92.14
42385;BME280;28042;43.986;22.860;2023-02-03T03:55:14;101855.22;;;3.67;92.74
42385;BME280;28042;43.986;22.860;2023-02-03T03:57:43;101874.72;;;3.60;93.44
42385;BME280;28042;43.986;22.860;2023-02-03T04:00:10;101877.66;;;3.57;93.59
42385;BME280;28042;43.986;22.860;2023-02-03T04:02:38;101885.63;;;3.58;92.85
42385;BME280;28042;43.986;22.860;2023-02-03T04:05:03;101880.25;;;3.58;91.98
42385;BME280;28042;43.986;22.860;2023-02-03T04:07:42;101886.50;;;3.59;92.33
42385;BME280;28042;43.986;22.860;2023-02-03T04:10:15;101884.16;;;3.54;92.60
42385;BME280;28042;43.986;22.860;2023-02-03T04:12:42;101885.38;;;3.50;92.50
42385;BME280;28042;43.986;22.860;2023-02-03T04:15:07;101888.69;;;3.43;93.59
42385;BME280;28042;43.986;22.860;2023-02-03T04:17:32;101890.53;;;3.42;94.42
42385;BME280;28042;43.986;22.860;2023-02-03T04:20:00;101900.59;;;3.40;94.99
42385;BME280;28042;43.986;22.860;2023-02-03T04:22:25;101904.28;;;3.39;95.24
42385;BME280;28042;43.986;22.860;2023-02-03T04:24:50;101892.75;;;3.48;94.44
42385;BME280;28042;43.986;22.860;2023-02-03T04:27:16;101903.88;;;3.55;94.11
42385;BME280;28042;43.986;22.860;2023-02-03T04:29:41;101899.13;;;3.58;94.25
42385;BME280;28042;43.986;22.860;2023-02-03T04:32:06;101898.41;;;3.56;94.73
42385;BME280;28042;43.986;22.860;2023-02-03T04:34:32;101903.66;;;3.58;94.64
42385;BME280;28042;43.986;22.860;2023-02-03T04:36:57;101905.50;;;3.57;94.92
42385;BME280;28042;43.986;22.860;2023-02-03T04:39:22;101906.59;;;3.55;95.49
42385;BME280;28042;43.986;22.860;2023-02-03T04:41:48;101908.81;;;3.50;95.65
42385;BME280;28042;43.986;22.860;2023-02-03T04:44:13;101910.41;;;3.52;95.91
42385;BME280;28042;43.986;22.860;2023-02-03T04:46:38;101901.78;;;3.47;96.31
42385;BME280;28042;43.986;22.860;2023-02-03T04:49:03;101901.78;;;3.47;96.25
42385;BME280;28042;43.986;22.860;2023-02-03T04:51:29;101917.97;;;3.47;95.78
42385;BME280;28042;43.986;22.860;2023-02-03T04:53:54;101912.59;;;3.47;95.76
42385;BME280;28042;43.986;22.860;2023-02-03T04:56:19;101908.94;;;3.48;95.68
42385;BME280;28042;43.986;22.860;2023-02-03T04:58:45;101910.03;;;3.46;95.40
42385;BME280;28042;43.986;22.860;2023-02-03T05:01:10;101916.53;;;3.43;95.57
42385;BME280;28042;43.986;22.860;2023-02-03T05:03:35;101917.97;;;3.47;94.95
42385;BME280;28042;43.986;22.860;2023-02-03T05:06:01;101927.91;;;3.47;94.90
42385;BME280;28042;43.986;22.860;2023-02-03T05:08:27;101910.41;;;3.41;94.28
42385;BME280;28042;43.986;22.860;2023-02-03T05:10:52;101916.78;;;3.40;94.55
42385;BME280;28042;43.986;22.860;2023-02-03T05:13:18;101917.75;;;3.39;94.64
42385;BME280;28042;43.986;22.860;2023-02-03T05:15:43;101913.44;;;3.36;94.25
42385;BME280;28042;43.986;22.860;2023-02-03T05:18:08;101912.97;;;3.31;95.03
42385;BME280;28042;43.986;22.860;2023-02-03T05:20:34;101930.34;;;3.27;94.65
42385;BME280;28042;43.986;22.860;2023-02-03T05:22:59;101919.31;;;3.19;94.94
42385;BME280;28042;43.986;22.860;2023-02-03T05:25:25;101912.94;;;3.20;94.97
42385;BME280;28042;43.986;22.860;2023-02-03T05:27:50;101914.16;;;3.16;95.91
42385;BME280;28042;43.986;22.860;2023-02-03T05:30:16;101919.69;;;3.26;94.67
42385;BME280;28042;43.986;22.860;2023-02-03T05:32:41;101935.41;;;3.32;93.84
42385;BME280;28042;43.986;22.860;2023-02-03T05:35:06;101937.13;;;3.33;93.82
42385;BME280;28042;43.986;22.860;2023-02-03T05:37:32;101944.94;;;3.36;93.09
42385;BME280;28042;43.986;22.860;2023-02-03T05:39:57;101940.28;;;3.38;92.81
42385;BME280;28042;43.986;22.860;2023-02-03T05:42:46;101929.50;;;3.38;93.09
42385;BME280;28042;43.986;22.860;2023-02-03T05:45:11;101938.69;;;3.35;92.62
42385;BME280;28042;43.986;22.860;2023-02-03T05:47:37;101942.25;;;3.36;92.06
42385;BME280;28042;43.986;22.860;2023-02-03T05:50:02;101949.63;;;3.34;92.06
42385;BME280;28042;43.986;22.860;2023-02-03T05:52:28;101939.09;;;3.31;92.22
42385;BME280;28042;43.986;22.860;2023-02-03T05:54:53;101942.97;;;3.27;92.09
42385;BME280;28042;43.986;22.860;2023-02-03T05:57:18;101948.38;;;3.27;91.52
42385;BME280;28042;43.986;22.860;2023-02-03T05:59:44;101946.91;;;3.34;90.86
42385;BME280;28042;43.986;22.860;2023-02-03T06:02:09;101944.34;;;3.32;90.46
42385;BME280;28042;43.986;22.860;2023-02-03T06:04:34;101939.09;;;3.31;91.06
42385;BME280;28042;43.986;22.860;2023-02-03T06:07:00;101949.88;;;3.31;91.01
42385;BME280;28042;43.986;22.860;2023-02-03T06:09:25;101962.59;;;3.29;92.01
42385;BME280;28042;43.986;22.860;2023-02-03T06:11:50;101967.50;;;3.24;91.64
42385;BME280;28042;43.986;22.860;2023-02-03T06:14:15;101964.78;;;3.24;92.67
42385;BME280;28042;43.986;22.860;2023-02-03T06:16:41;101963.09;;;3.23;92.66
42385;BME280;28042;43.986;22.860;2023-02-03T06:19:06;101977.75;;;3.19;93.39
42385;BME280;28042;43.986;22.860;2023-02-03T06:21:31;101980.84;;;3.14;93.59
42385;BME280;28042;43.986;22.860;2023-02-03T06:23:57;101971.75;;;3.15;93.64
42385;BME280;28042;43.986;22.860;2023-02-03T06:26:22;101978.22;;;3.12;94.52
42385;BME280;28042;43.986;22.860;2023-02-03T06:28:48;101992.69;;;3.11;94.35
42385;BME280;28042;43.986;22.860;2023-02-03T06:31:13;101984.59;;;3.11;95.21
42385;BME280;28042;43.986;22.860;2023-02-03T06:33:38;101992.47;;;3.15;94.33
42385;BME280;28042;43.986;22.860;2023-02-03T06:36:04;101998.22;;;3.21;94.32
42385;BME280;28042;43.986;22.860;2023-02-03T06:38:29;102000.84;;;3.23;94.00
42385;BME280;28042;43.986;22.860;2023-02-03T06:40:54;102005.97;;;3.26;94.88
42385;BME280;28042;43.986;22.860;2023-02-03T06:43:20;102000.84;;;3.34;93.82
42385;BME280;28042;43.986;22.860;2023-02-03T06:45:46;102011.91;;;3.42;93.41
42385;BME280;28042;43.986;22.860;2023-02-03T06:48:11;102017.91;;;3.46;93.85
42385;BME280;28042;43.986;22.860;2023-02-03T06:50:37;102021.25;;;3.49;93.50
42385;BME280;28042;43.986;22.860;2023-02-03T06:53:02;102015.97;;;3.48;94.65
42385;BME280;28042;43.986;22.860;2023-02-03T06:55:27;102021.97;;;3.51;94.67
42385;BME280;28042;43.986;22.860;2023-02-03T06:57:53;102015.13;;;3.58;95.21
42385;BME280;28042;43.986;22.860;2023-02-03T07:00:18;102022.50;;;3.67;95.03
42385;BME280;28042;43.986;22.860;2023-02-03T07:02:44;102018.09;;;3.78;93.71
42385;BME280;28042;43.986;22.860;2023-02-03T07:05:09;102014.16;;;3.82;93.17
42385;BME280;28042;43.986;22.860;2023-02-03T07:07:35;102009.25;;;3.98;91.96
42385;BME280;28042;43.986;22.860;2023-02-03T07:10:02;102015.03;;;4.05;91.63
42385;BME280;28042;43.986;22.860;2023-02-03T07:12:27;102021.19;;;4.18;90.51
42385;BME280;28042;43.986;22.860;2023-02-03T07:14:53;102027.03;;;4.23;90.25
42385;BME280;28042;43.986;22.860;2023-02-03T07:17:18;102022.59;;;4.33;90.05
42385;BME280;28042;43.986;22.860;2023-02-03T07:19:44;102024.69;;;4.52;89.63
42385;BME280;28042;43.986;22.860;2023-02-03T07:22:09;102018.53;;;4.61;87.74
42385;BME280;28042;43.986;22.860;2023-02-03T07:24:35;102007.81;;;4.71;85.80
42385;BME280;28042;43.986;22.860;2023-02-03T07:27:00;102019.69;;;4.79;83.92
42385;BME280;28042;43.986;22.860;2023-02-03T07:29:26;102021.09;;;4.95;83.70
42385;BME280;28042;43.986;22.860;2023-02-03T07:31:51;102025.22;;;5.10;82.84
42385;BME280;28042;43.986;22.860;2023-02-03T07:34:16;102020.16;;;5.17;82.51
42385;BME280;28042;43.986;22.860;2023-02-03T07:36:41;102021.34;;;5.24;81.84
42385;BME280;28042;43.986;22.860;2023-02-03T07:39:07;102033.47;;;5.08;82.11
42385;BME280;28042;43.986;22.860;2023-02-03T07:41:32;102027.22;;;5.08;83.19
42385;BME280;28042;43.986;22.860;2023-02-03T07:43:57;102036.47;;;4.94;84.40
42385;BME280;28042;43.986;22.860;2023-02-03T07:46:23;102020.69;;;4.78;84.69
42385;BME280;28042;43.986;22.860;2023-02-03T07:48:48;102033.25;;;4.57;85.84
42385;BME280;28042;43.986;22.860;2023-02-03T07:51:13;102042.00;;;4.49;86.71
42385;BME280;28042;43.986;22.860;2023-02-03T07:53:39;102035.97;;;4.57;86.26
42385;BME280;28042;43.986;22.860;2023-02-03T07:56:04;102038.41;;;4.60;86.34
42385;BME280;28042;43.986;22.860;2023-02-03T07:58:29;102046.25;;;4.74;85.64
42385;BME280;28042;43.986;22.860;2023-02-03T08:00:55;102038.56;;;4.91;85.57
42385;BME280;28042;43.986;22.860;2023-02-03T08:03:20;102034.38;;;4.98;84.47
42385;BME280;28042;43.986;22.860;2023-02-03T08:05:46;102053.25;;;5.09;83.82
42385;BME280;28042;43.986;22.860;2023-02-03T08:08:11;102047.22;;;5.17;83.71
42385;BME280;28042;43.986;22.860;2023-02-03T08:10:36;102041.34;;;5.32;82.84
42385;BME280;28042;43.986;22.860;2023-02-03T08:13:02;102043.78;;;5.35;80.99
42385;BME280;28042;43.986;22.860;2023-02-03T08:15:27;102044.00;;;5.44;79.69
42385;BME280;28042;43.986;22.860;2023-02-03T08:17:52;102052.84;;;5.46;78.72
42385;BME280;28042;43.986;22.860;2023-02-03T08:20:18;102043.84;;;5.45;80.21
42385;BME280;28042;43.986;22.860;2023-02-03T08:22:43;102048.41;;;5.45;78.79
42385;BME280;28042;43.986;22.860;2023-02-03T08:25:09;102048.34;;;5.56;78.82
42385;BME280;28042;43.986;22.860;2023-02-03T08:27:34;102046.63;;;5.34;77.98
42385;BME280;28042;43.986;22.860;2023-02-03T08:29:59;102055.34;;;5.37;78.63
42385;BME280;28042;43.986;22.860;2023-02-03T08:32:25;102051.97;;;5.45;78.61
42385;BME280;28042;43.986;22.860;2023-02-03T08:34:51;102052.91;;;5.34;77.13
42385;BME280;28042;43.986;22.860;2023-02-03T08:37:17;102054.41;;;5.27;77.52
42385;BME280;28042;43.986;22.860;2023-02-03T08:39:43;102055.03;;;5.52;78.66
42385;BME280;28042;43.986;22.860;2023-02-03T08:42:08;102050.59;;;5.51;77.54
42385;BME280;28042;43.986;22.860;2023-02-03T08:44:33;102050.66;;;5.60;77.64
42385;BME280;28042;43.986;22.860;2023-02-03T08:46:59;102052.50;;;5.81;76.96
42385;BME280;28042;43.986;22.860;2023-02-03T08:49:26;102059.03;;;5.78;74.83
42385;BME280;28042;43.986;22.860;2023-02-03T08:51:52;102070.94;;;5.66;74.97
42385;BME280;28042;43.986;22.860;2023-02-03T08:54:17;102082.56;;;5.57;75.65
42385;BME280;28042;43.986;22.860;2023-02-03T08:56:43;102079.38;;;5.52;76.12
42385;BME280;28042;43.986;22.860;2023-02-03T08:59:09;102080.25;;;5.52;75.42
42385;BME280;28042;43.986;22.860;2023-02-03T09:01:34;102083.09;;;5.51;76.43
42385;BME280;28042;43.986;22.860;2023-02-03T09:04:00;102078.66;;;5.50;77.51
42385;BME280;28042;43.986;22.860;2023-02-03T09:06:28;102080.16;;;5.43;76.49
42385;BME280;28042;43.986;22.860;2023-02-03T09:08:55;102076.41;;;5.34;76.53
42385;BME280;28042;43.986;22.860;2023-02-03T09:11:20;102076.41;;;5.34;77.19
42385;BME280;28042;43.986;22.860;2023-02-03T09:13:45;102084.00;;;5.40;76.64
42385;BME280;28042;43.986;22.860;2023-02-03T09:16:12;102079.44;;;5.41;74.87
42385;BME280;28042;43.986;22.860;2023-02-03T09:18:38;102088.66;;;5.38;73.90
42385;BME280;28042;43.986;22.860;2023-02-03T09:21:05;102093.84;;;5.41;74.62
42385;BME280;28042;43.986;22.860;2023-02-03T09:23:30;102079.66;;;5.49;73.97
42385;BME280;28042;43.986;22.860;2023-02-03T09:26:00;102094.69;;;5.62;74.30
42385;BME280;28042;43.986;22.860;2023-02-03T09:28:26;102092.13;;;5.61;72.84
42385;BME280;28042;43.986;22.860;2023-02-03T09:30:51;102086.19;;;5.67;73.69
42385;BME280;28042;43.986;22.860;2023-02-03T09:33:16;102074.81;;;5.73;72.24
42385;BME280;28042;43.986;22.860;2023-02-03T09:35:42;102093.13;;;5.60;71.62
42385;BME280;28042;43.986;22.860;2023-02-03T09:38:15;102091.41;;;5.59;70.39
42385;BME280;28042;43.986;22.860;2023-02-03T09:40:40;102088.28;;;5.43;69.32
42385;BME280;28042;43.986;22.860;2023-02-03T09:45:31;102075.69;;;5.53;70.00
42385;BME280;28042;43.986;22.860;2023-02-03T09:48:03;102069.94;;;5.46;68.25
42385;BME280;28042;43.986;22.860;2023-02-03T09:50:30;102077.47;;;5.43;68.38
42385;BME280;28042;43.986;22.860;2023-02-03T09:52:58;102049.63;;;5.31;69.57
42385;BME280;28042;43.986;22.860;2023-02-03T09:55:41;102066.16;;;5.37;70.56
42385;BME280;28042;43.986;22.860;2023-02-03T10:00:35;102050.78;;;5.80;67.10
42385;BME280;28042;43.986;22.860;2023-02-03T10:03:07;102040.50;;;5.94;64.83
42385;BME280;28042;43.986;22.860;2023-02-03T10:10:59;102025.72;;;6.39;62.86
42385;BME280;28042;43.986;22.860;2023-02-03T10:18:30;102039.88;;;6.12;62.76
42385;BME280;28042;43.986;22.860;2023-02-03T10:21:05;102044.81;;;6.07;63.56
42385;BME280;28042;43.986;22.860;2023-02-03T10:23:37;102038.41;;;6.08;62.31
42385;BME280;28042;43.986;22.860;2023-02-03T10:26:04;102033.22;;;5.95;60.26
42385;BME280;28042;43.986;22.860;2023-02-03T10:31:31;102034.41;;;6.02;59.36
42385;BME280;28042;43.986;22.860;2023-02-03T10:33:59;102036.56;;;5.87;57.48
42385;BME280;28042;43.986;22.860;2023-02-03T10:36:34;102020.28;;;5.78;56.54
42385;BME280;28042;43.986;22.860;2023-02-03T10:41:52;102028.34;;;5.68;56.38
42385;BME280;28042;43.986;22.860;2023-02-03T10:44:18;102001.72;;;5.73;56.27
42385;BME280;28042;43.986;22.860;2023-02-03T10:46:43;102019.44;;;5.77;56.19
42385;BME280;28042;43.986;22.860;2023-02-03T10:49:09;102013.44;;;5.74;57.57
42385;BME280;28042;43.986;22.860;2023-02-03T10:51:37;102010.03;;;5.81;57.17
42385;BME280;28042;43.986;22.860;2023-02-03T10:54:04;102006.34;;;5.82;55.26
42385;BME280;28042;43.986;22.860;2023-02-03T10:56:49;102006.22;;;5.84;56.40
42385;BME280;28042;43.986;22.860;2023-02-03T10:59:24;102001.81;;;5.83;56.15
42385;BME280;28042;43.986;22.860;2023-02-03T11:01:51;102000.38;;;5.88;56.58
42385;BME280;28042;43.986;22.860;2023-02-03T11:04:27;102006.88;;;5.76;58.49
42385;BME280;28042;43.986;22.860;2023-02-03T11:06:53;102015.44;;;5.81;59.24
42385;BME280;28042;43.986;22.860;2023-02-03T11:09:21;102000.09;;;5.61;59.37
42385;BME280;28042;43.986;22.860;2023-02-03T11:11:49;102024.19;;;5.64;58.60
42385;BME280;28042;43.986;22.860;2023-02-03T11:14:26;102026.16;;;5.62;57.30
42385;BME280;28042;43.986;22.860;2023-02-03T11:17:04;102029.22;;;5.48;56.85
42385;BME280;28042;43.986;22.860;2023-02-03T11:19:30;102027.28;;;5.38;59.16
42385;BME280;28042;43.986;22.860;2023-02-03T11:21:55;102037.59;;;5.45;59.31
42385;BME280;28042;43.986;22.860;2023-02-03T11:24:27;102034.22;;;5.31;57.82
42385;BME280;28042;43.986;22.860;2023-02-03T11:26:58;102024.41;;;5.51;59.40
42385;BME280;28042;43.986;22.860;2023-02-03T11:31:53;102024.78;;;5.47;57.73
42385;BME280;28042;43.986;22.860;2023-02-03T11:34:20;102014.69;;;5.70;58.41
42385;BME280;28042;43.986;22.860;2023-02-03T11:36:50;101995.59;;;5.92;56.31
42385;BME280;28042;43.986;22.860;2023-02-03T11:39:16;101994.97;;;6.09;56.55
42385;BME280;28042;43.986;22.860;2023-02-03T11:41:43;101988.03;;;6.26;56.42
42385;BME280;28042;43.986;22.860;2023-02-03T11:44:27;102007.28;;;6.33;54.21
42385;BME280;28042;43.986;22.860;2023-02-03T11:47:00;101985.19;;;6.37;55.15
42385;BME280;28042;43.986;22.860;2023-02-03T11:52:21;101974.03;;;6.21;54.41
42385;BME280;28042;43.986;22.860;2023-02-03T12:03:08;101955.78;;;6.23;54.17
42385;BME280;28042;43.986;22.860;2023-02-03T12:11:03;101937.56;;;6.44;49.83
42385;BME280;28042;43.986;22.860;2023-02-03T12:21:56;101914.75;;;6.76;47.78
42385;BME280;28042;43.986;22.860;2023-02-03T12:27:07;101912.72;;;7.17;49.11
42385;BME280;28042;43.986;22.860;2023-02-03T12:29:36;101902.78;;;6.78;47.99
42385;BME280;28042;43.986;22.860;2023-02-03T12:32:19;101906.03;;;6.82;48.63
42385;BME280;28042;43.986;22.860;2023-02-03T12:34:51;101894.06;;;6.65;48.68
42385;BME280;28042;43.986;22.860;2023-02-03T12:39:59;101894.31;;;6.33;47.90
42385;BME280;28042;43.986;22.860;2023-02-03T12:42:27;101888.78;;;6.64;47.87
42385;BME280;28042;43.986;22.860;2023-02-03T12:44:58;101870.81;;;6.63;45.19
42385;BME280;28042;43.986;22.860;2023-02-03T12:47:37;101870.50;;;6.75;46.81
42385;BME280;28042;43.986;22.860;2023-02-03T12:50:06;101861.66;;;6.83;45.02
42385;BME280;28042;43.986;22.860;2023-02-03T12:57:59;101858.63;;;7.05;44.85
42385;BME280;28042;43.986;22.860;2023-02-03T13:00:41;101863.91;;;7.07;44.91
42385;BME280;28042;43.986;22.860;2023-02-03T13:08:28;101860.16;;;7.18;44.13
42385;BME280;28042;43.986;22.860;2023-02-03T13:13:43;101850.09;;;6.81;44.80
42385;BME280;28042;43.986;22.860;2023-02-03T13:16:11;101853.97;;;6.40;43.82
42385;BME280;28042;43.986;22.860;2023-02-03T13:18:41;101848.69;;;6.38;45.15
42385;BME280;28042;43.986;22.860;2023-02-03T13:21:11;101847.09;;;6.16;45.05
42385;BME280;28042;43.986;22.860;2023-02-03T13:23:38;101858.81;;;6.17;45.33
42385;BME280;28042;43.986;22.860;2023-02-03T13:26:27;101851.97;;;6.13;46.16
42385;BME280;28042;43.986;22.860;2023-02-03T13:44:27;101826.28;;;5.98;46.24
42385;BME280;28042;43.986;22.860;2023-02-03T13:46:54;101829.97;;;5.97;46.37
42385;BME280;28042;43.986;22.860;2023-02-03T13:49:24;101821.84;;;5.97;46.03
42385;BME280;28042;43.986;22.860;2023-02-03T13:51:51;101819.28;;;5.95;45.52
42385;BME280;28042;43.986;22.860;2023-02-03T13:57:01;101814.72;;;6.05;46.36
42385;BME280;28042;43.986;22.860;2023-02-03T14:10:04;101806.91;;;6.12;47.27
42385;BME280;28042;43.986;22.860;2023-02-03T14:12:32;101786.09;;;6.03;47.62
42385;BME280;28042;43.986;22.860;2023-02-03T14:14:59;101790.06;;;5.99;48.60
42385;BME280;28042;43.986;22.860;2023-02-03T14:20:00;101794.22;;;5.93;48.31
42385;BME280;28042;43.986;22.860;2023-02-03T14:22:26;101774.25;;;5.94;48.82
42385;BME280;28042;43.986;22.860;2023-02-03T14:24:52;101782.22;;;5.95;49.47
42385;BME280;28042;43.986;22.860;2023-02-03T14:27:19;101776.09;;;5.93;49.19
42385;BME280;28042;43.986;22.860;2023-02-03T14:30:00;101772.69;;;5.91;49.57
42385;BME280;28042;43.986;22.860;2023-02-03T14:32:33;101763.56;;;5.92;49.63
42385;BME280;28042;43.986;22.860;2023-02-03T14:38:08;101764.66;;;5.90;50.51
42385;BME280;28042;43.986;22.860;2023-02-03T14:43:18;101751.41;;;5.87;50.78
42385;BME280;28042;43.986;22.860;2023-02-03T14:58:46;101724.47;;;5.66;52.61
42385;BME280;28042;43.986;22.860;2023-02-03T15:09:11;101710.63;;;5.50;52.28
42385;BME280;28042;43.986;22.860;2023-02-03T15:11:42;101713.59;;;5.47;53.04
42385;BME280;28042;43.986;22.860;2023-02-03T15:16:52;101713.56;;;5.37;53.38
42385;BME280;28042;43.986;22.860;2023-02-03T15:19:18;101708.59;;;5.32;54.21